METAR Data
IDs: Format: Raw Decoded Include TAF

Data at: 0916 UTC 23 Sep 2018

KMFE 230853Z AUTO 30004KT 10SM FEW035 FEW075 BKN100 26/22 A2995 RMK AO2 SLP139 T02560217 58005
KMFE 230753Z AUTO 25004KT 10SM SCT034 OVC046 27/21 A2997 RMK AO2 SLP145 T02670211
KMFE 230653Z AUTO 35007KT 10SM BKN036 OVC070 27/21 A2996 RMK AO2 SLP143 T02720211
KMFE 230553Z AUTO 33006KT 10SM BKN036 BKN047 27/22 A2996 RMK AO2 SLP144 T02670222 10300 20267 403330261 50001
KMFE 230453Z AUTO 32005KT 10SM FEW040 BKN075 28/24 A2996 RMK AO2 SLP145 T02780239
KMFE 230353Z 33006KT 10SM CLR 28/24 A2996 RMK AO2 SLP143 T02780239
KMFE 230253Z 35005KT 10SM BKN075 BKN090 BKN120 29/23 A2996 RMK AO2 LTG DSNT SE SLP143 T02890233 53023
KMFE 230153Z 33007KT 10SM CLR 28/24 A2993 RMK AO2 SLP133 T02780239
KMFE 230053Z 34009KT 10SM CLR 29/24 A2990 RMK AO2 SLP121 T02890239
KMFE 222353Z 33011KT 10SM CLR 30/24 A2989 RMK AO2 SLP120 T03000244 10333 20300 53003
KMFE 222253Z 32012KT 10SM SCT037 BKN048 BKN060 32/24 A2988 RMK AO2 SLP117 T03170239
KMFE 222153Z 30011KT 10SM FEW037 SCT060 33/23 A2987 RMK AO2 SLP114 T03280233
KMFE 222053Z 34006KT 10SM CLR 33/24 A2988 RMK AO2 SLP117 T03330239 58021
KMFE 221953Z 33008KT 10SM BKN035 32/24 A2991 RMK AO2 SLP125 T03220239
KMFE 221853Z 28007KT 10SM BKN035 32/24 A2993 RMK AO2 SLP131 T03220239
KMFE 221753Z VRB04KT 10SM CLR 32/23 A2994 RMK AO2 SLP138 T03220233 10333 20261 58003
KMFE 221653Z 10SM CLR 32/23 A2996 RMK AO2 SLP145 T03220233
KMFE 221553Z 29007KT 10SM FEW026 30/24 A2996 RMK AO2 SLP144 T03000239
KMFE 221453Z 31007KT 10SM CLR 28/24 A2995 RMK AO2 SLP141 T02830239 51013
KMFE 221353Z 29006KT 10SM CLR 28/24 A2995 RMK AO2 SLP139 T02780239
KMFE 221253Z 28005KT 10SM CLR 27/23 A2993 RMK AO2 SLP133 T02670228
KMFE 221153Z 00000KT 10SM FEW030 BKN036 27/23 A2992 RMK AO2 SLP128 T02720233 10289 20272 50004
KMFE 221053Z 24005KT 8SM SCT015 BKN019 OVC027 29/26 A2992 RMK AO2 SLP131 T02890261
KMFE 221021Z AUTO 22005KT 7SM BKN015 BKN095 29/26 A2991 RMK AO2 T02890261
KMFE 221011Z AUTO 20005KT 7SM SCT015 BKN095 28/27 A2990 RMK AO2 T02830267
KMFE 220953Z AUTO 18006KT 7SM BKN015 OVC095 29/27 A2990 RMK AO2 SLP123 T02890267
KMFE 220921Z AUTO 17005KT 6SM BR BKN017 29/27 A2990 RMK AO2 T02890267
KMFE 220853Z AUTO 16008KT 6SM BR FEW015 BKN095 29/27 A2990 RMK AO2 SLP123 T02890267 56005
KMFE 220848Z AUTO 15009KT 6SM BR SCT015 BKN095 29/27 A2991 RMK AO2
KMFE 220828Z AUTO 15007KT 6SM BR BKN015 BKN080 29/27 A2991 RMK AO2 T02890267
KMFE 220753Z AUTO 15012KT 6SM BR CLR 29/27 A2989 RMK AO2 SLP119 T02890267
KMFE 220653Z AUTO 14010KT 8SM FEW017 BKN080 29/27 A2992 RMK AO2 SLP129 T02890267
KMFE 220553Z AUTO 15010KT 8SM FEW019 29/27 A2993 RMK AO2 SLP132 T02940267 10333 20289 403670267 53008
KMFE 220453Z AUTO 14008KT 7SM CLR 29/27 A2992 RMK AO2 SLP130 T02890267
KMFE 220353Z 14009KT 10SM CLR 29/26 A2991 RMK AO2 SLP125 T02940261
KMFE 220253Z 14012KT 10SM CLR 30/26 A2990 RMK AO2 SLP124 T03000261 53021
KMFE 220153Z 14013KT 10SM CLR 31/26 A2987 RMK AO2 SLP114 T03060256
KMFE 220053Z 13011KT 10SM CLR 31/26 A2985 RMK AO2 SLP108 T03110256
KMFE 212353Z 15014KT 10SM CLR 33/25 A2984 RMK AO2 SLP103 T03330250 10367 20333 53009
KMFE 212253Z 16013G19KT 10SM FEW046 34/24 A2982 RMK AO2 SLP096 T03440244
KMFE 212153Z 16013G20KT 10SM CLR 36/24 A2981 RMK AO2 SLP093 T03560239